sensor_id;sensor_type;location;lat;lon;timestamp;pressure;altitude;pressure_sealevel;temperature;humidity
76128;BME280;64873;50.102;14.434;2022-11-15T00:01:41;99527.72;;;4.10;89.35
76128;BME280;64873;50.102;14.434;2022-11-15T00:04:06;99523.63;;;4.07;89.31
76128;BME280;64873;50.102;14.434;2022-11-15T00:06:32;99518.81;;;4.03;89.48
76128;BME280;64873;50.102;14.434;2022-11-15T00:08:58;99507.31;;;3.87;89.65
76128;BME280;64873;50.102;14.434;2022-11-15T00:11:24;99505.00;;;3.84;89.86
76128;BME280;64873;50.102;14.434;2022-11-15T00:13:49;99497.38;;;3.89;90.13
76128;BME280;64873;50.102;14.434;2022-11-15T00:16:14;99508.59;;;3.91;90.31
76128;BME280;64873;50.102;14.434;2022-11-15T00:18:40;99499.03;;;3.90;90.11
76128;BME280;64873;50.102;14.434;2022-11-15T00:21:08;99514.22;;;4.05;89.78
76128;BME280;64873;50.102;14.434;2022-11-15T00:23:34;99513.41;;;3.88;89.87
76128;BME280;64873;50.102;14.434;2022-11-15T00:25:59;99507.47;;;3.86;89.67
76128;BME280;64873;50.102;14.434;2022-11-15T00:28:25;99513.75;;;3.85;89.60
76128;BME280;64873;50.102;14.434;2022-11-15T00:30:51;99526.97;;;3.93;89.05
76128;BME280;64873;50.102;14.434;2022-11-15T00:33:16;99519.06;;;3.77;88.69
76128;BME280;64873;50.102;14.434;2022-11-15T00:35:42;99518.38;;;3.74;88.40
76128;BME280;64873;50.102;14.434;2022-11-15T00:38:07;99512.94;;;3.52;88.90
76128;BME280;64873;50.102;14.434;2022-11-15T00:40:32;99526.47;;;3.57;89.34
76128;BME280;64873;50.102;14.434;2022-11-15T00:42:58;99515.28;;;3.46;89.20
76128;BME280;64873;50.102;14.434;2022-11-15T00:45:24;99521.53;;;3.54;88.87
76128;BME280;64873;50.102;14.434;2022-11-15T00:47:50;99506.34;;;3.47;89.27
76128;BME280;64873;50.102;14.434;2022-11-15T00:50:15;99527.47;;;3.47;89.74
76128;BME280;64873;50.102;14.434;2022-11-15T00:52:41;99506.34;;;3.47;89.31
76128;BME280;64873;50.102;14.434;2022-11-15T00:55:09;99525.16;;;3.61;89.37
76128;BME280;64873;50.102;14.434;2022-11-15T00:57:38;99518.72;;;3.55;89.54
76128;BME280;64873;50.102;14.434;2022-11-15T01:00:04;99521.19;;;3.57;89.46
76128;BME280;64873;50.102;14.434;2022-11-15T01:02:30;99513.59;;;3.62;89.28
76128;BME280;64873;50.102;14.434;2022-11-15T01:04:55;99506.00;;;3.67;89.15
76128;BME280;64873;50.102;14.434;2022-11-15T01:07:21;99514.25;;;3.72;88.98
76128;BME280;64873;50.102;14.434;2022-11-15T01:09:46;99496.94;;;3.69;89.07
76128;BME280;64873;50.102;14.434;2022-11-15T01:12:11;99492.31;;;3.55;89.54
76128;BME280;64873;50.102;14.434;2022-11-15T01:14:37;99509.47;;;3.76;89.17
76128;BME280;64873;50.102;14.434;2022-11-15T01:17:02;99502.34;;;3.84;89.05
76128;BME280;64873;50.102;14.434;2022-11-15T01:19:27;99503.00;;;3.78;88.93
76128;BME280;64873;50.102;14.434;2022-11-15T01:21:53;99479.25;;;3.54;89.20
76128;BME280;64873;50.102;14.434;2022-11-15T01:24:18;99474.97;;;3.53;89.57
76128;BME280;64873;50.102;14.434;2022-11-15T01:26:43;99493.13;;;3.64;89.81
76128;BME280;64873;50.102;14.434;2022-11-15T01:29:09;99505.34;;;3.73;89.88
76128;BME280;64873;50.102;14.434;2022-11-15T01:31:34;99506.63;;;3.93;89.07
76128;BME280;64873;50.102;14.434;2022-11-15T01:33:59;99506.78;;;4.00;88.67
76128;BME280;64873;50.102;14.434;2022-11-15T01:36:25;99496.38;;;3.90;88.90
76128;BME280;64873;50.102;14.434;2022-11-15T01:38:55;99504.63;;;3.95;88.98
76128;BME280;64873;50.102;14.434;2022-11-15T01:41:26;99475.59;;;3.87;89.05
76128;BME280;64873;50.102;14.434;2022-11-15T01:43:55;99499.06;;;3.82;89.40
76128;BME280;64873;50.102;14.434;2022-11-15T01:48:46;99486.75;;;4.14;89.31
76128;BME280;64873;50.102;14.434;2022-11-15T01:51:15;99485.41;;;4.10;89.13
76128;BME280;64873;50.102;14.434;2022-11-15T01:53:45;99473.78;;;3.88;88.96
76128;BME280;64873;50.102;14.434;2022-11-15T01:56:16;99473.91;;;3.94;88.97
76128;BME280;64873;50.102;14.434;2022-11-15T01:58:44;99498.50;;;4.11;88.38
76128;BME280;64873;50.102;14.434;2022-11-15T02:01:11;99480.66;;;3.97;87.23
76128;BME280;64873;50.102;14.434;2022-11-15T02:03:51;99471.31;;;3.78;87.65
76128;BME280;64873;50.102;14.434;2022-11-15T02:06:20;99489.13;;;3.84;87.36
76128;BME280;64873;50.102;14.434;2022-11-15T02:08:47;99490.78;;;3.69;87.97
76128;BME280;64873;50.102;14.434;2022-11-15T02:11:12;99478.59;;;3.60;88.21
76128;BME280;64873;50.102;14.434;2022-11-15T02:13:39;99459.44;;;3.50;88.46
76128;BME280;64873;50.102;14.434;2022-11-15T02:18:36;99458.78;;;3.47;89.12
76128;BME280;64873;50.102;14.434;2022-11-15T02:31:57;99459.41;;;3.82;88.44
76128;BME280;64873;50.102;14.434;2022-11-15T02:34:43;99467.66;;;3.87;88.34
76128;BME280;64873;50.102;14.434;2022-11-15T02:40:07;99477.88;;;3.90;88.26
76128;BME280;64873;50.102;14.434;2022-11-15T02:42:41;99458.72;;;3.80;88.34
76128;BME280;64873;50.102;14.434;2022-11-15T02:45:33;99469.66;;;3.77;88.64
76128;BME280;64873;50.102;14.434;2022-11-15T02:48:01;99448.53;;;3.44;89.65
76128;BME280;64873;50.102;14.434;2022-11-15T02:50:29;99474.31;;;3.59;89.90
76128;BME280;64873;50.102;14.434;2022-11-15T02:52:56;99476.44;;;3.55;89.90
76128;BME280;64873;50.102;14.434;2022-11-15T02:55:38;99454.84;;;3.35;90.00
76128;BME280;64873;50.102;14.434;2022-11-15T03:01:04;99457.16;;;3.46;90.00
76128;BME280;64873;50.102;14.434;2022-11-15T03:03:53;99462.44;;;3.46;90.07
76128;BME280;64873;50.102;14.434;2022-11-15T03:06:37;99458.78;;;3.64;90.03
76128;BME280;64873;50.102;14.434;2022-11-15T03:09:15;99452.81;;;3.70;89.84
76128;BME280;64873;50.102;14.434;2022-11-15T03:11:49;99455.47;;;3.54;90.19
76128;BME280;64873;50.102;14.434;2022-11-15T03:14:23;99433.34;;;3.55;90.09
76128;BME280;64873;50.102;14.434;2022-11-15T03:19:48;99429.97;;;3.85;89.16
76128;BME280;64873;50.102;14.434;2022-11-15T03:22:18;99433.91;;;3.97;88.88
76128;BME280;64873;50.102;14.434;2022-11-15T03:24:47;99433.97;;;3.81;88.78
76128;BME280;64873;50.102;14.434;2022-11-15T03:27:17;99434.59;;;3.91;89.10
76128;BME280;64873;50.102;14.434;2022-11-15T03:29:50;99428.00;;;3.87;89.17
76128;BME280;64873;50.102;14.434;2022-11-15T03:32:20;99421.38;;;3.91;89.02
76128;BME280;64873;50.102;14.434;2022-11-15T03:35:08;99415.16;;;3.76;88.93
76128;BME280;64873;50.102;14.434;2022-11-15T03:37:43;99429.34;;;3.83;89.30
76128;BME280;64873;50.102;14.434;2022-11-15T03:40:10;99427.00;;;3.80;89.30
76128;BME280;64873;50.102;14.434;2022-11-15T03:45:17;99423.75;;;3.70;90.16
76128;BME280;64873;50.102;14.434;2022-11-15T03:50:12;99393.03;;;3.61;90.38
76128;BME280;64873;50.102;14.434;2022-11-15T03:52:39;99402.25;;;3.81;90.00
76128;BME280;64873;50.102;14.434;2022-11-15T03:55:08;99419.50;;;3.53;89.91
76128;BME280;64873;50.102;14.434;2022-11-15T03:57:35;99417.47;;;3.63;90.56
76128;BME280;64873;50.102;14.434;2022-11-15T04:00:01;99412.19;;;3.71;90.52
76128;BME280;64873;50.102;14.434;2022-11-15T04:02:26;99412.88;;;3.65;90.91
76128;BME280;64873;50.102;14.434;2022-11-15T04:04:51;99412.19;;;3.71;90.84
76128;BME280;64873;50.102;14.434;2022-11-15T04:07:17;99400.28;;;3.67;91.12
76128;BME280;64873;50.102;14.434;2022-11-15T04:09:42;99419.19;;;4.03;90.65
76128;BME280;64873;50.102;14.434;2022-11-15T04:12:26;99397.63;;;3.83;90.71
76128;BME280;64873;50.102;14.434;2022-11-15T04:14:59;99384.59;;;3.73;90.82
76128;BME280;64873;50.102;14.434;2022-11-15T04:20:02;99389.28;;;4.03;90.75
76128;BME280;64873;50.102;14.434;2022-11-15T04:22:46;99389.22;;;3.71;90.66
76128;BME280;64873;50.102;14.434;2022-11-15T04:25:30;99381.09;;;3.81;90.72
76128;BME280;64873;50.102;14.434;2022-11-15T04:27:55;99401.13;;;3.67;91.19
76128;BME280;64873;50.102;14.434;2022-11-15T04:30:20;99393.97;;;3.84;91.12
76128;BME280;64873;50.102;14.434;2022-11-15T04:32:46;99376.19;;;3.70;91.17
76128;BME280;64873;50.102;14.434;2022-11-15T04:35:11;99397.88;;;4.05;90.59
76128;BME280;64873;50.102;14.434;2022-11-15T04:37:37;99406.09;;;4.10;90.21
76128;BME280;64873;50.102;14.434;2022-11-15T04:40:02;99398.53;;;4.07;89.46
76128;BME280;64873;50.102;14.434;2022-11-15T04:42:28;99387.19;;;3.90;88.72
76128;BME280;64873;50.102;14.434;2022-11-15T04:45:13;99412.50;;;3.68;89.28
76128;BME280;64873;50.102;14.434;2022-11-15T04:47:38;99413.16;;;3.78;89.58
76128;BME280;64873;50.102;14.434;2022-11-15T04:50:04;99382.06;;;3.88;88.81
76128;BME280;64873;50.102;14.434;2022-11-15T04:52:30;99357.59;;;3.86;88.26
76128;BME280;64873;50.102;14.434;2022-11-15T04:54:55;99402.66;;;4.01;88.50
76128;BME280;64873;50.102;14.434;2022-11-15T04:57:20;99379.75;;;3.93;88.28
76128;BME280;64873;50.102;14.434;2022-11-15T04:59:46;99392.41;;;3.98;88.28
76128;BME280;64873;50.102;14.434;2022-11-15T05:02:11;99394.94;;;3.91;88.49
76128;BME280;64873;50.102;14.434;2022-11-15T05:04:37;99398.06;;;3.87;88.43
76128;BME280;64873;50.102;14.434;2022-11-15T05:07:02;99392.97;;;3.85;88.82
76128;BME280;64873;50.102;14.434;2022-11-15T05:09:29;99403.53;;;3.93;88.88
76128;BME280;64873;50.102;14.434;2022-11-15T05:11:54;99374.97;;;3.81;88.60
76128;BME280;64873;50.102;14.434;2022-11-15T05:14:20;99401.78;;;4.17;88.44
76128;BME280;64873;50.102;14.434;2022-11-15T05:16:45;99393.53;;;4.12;88.10
76128;BME280;64873;50.102;14.434;2022-11-15T05:19:10;99372.13;;;3.90;88.27
76128;BME280;64873;50.102;14.434;2022-11-15T05:21:36;99388.72;;;3.76;89.03
76128;BME280;64873;50.102;14.434;2022-11-15T05:24:02;99390.69;;;3.74;89.35
76128;BME280;64873;50.102;14.434;2022-11-15T05:26:28;99368.88;;;3.80;89.33
76128;BME280;64873;50.102;14.434;2022-11-15T05:28:54;99377.09;;;3.85;88.38
76128;BME280;64873;50.102;14.434;2022-11-15T05:31:21;99395.94;;;3.90;88.58
76128;BME280;64873;50.102;14.434;2022-11-15T05:33:46;99372.19;;;3.82;88.42
76128;BME280;64873;50.102;14.434;2022-11-15T05:38:41;99382.06;;;3.80;88.11
76128;BME280;64873;50.102;14.434;2022-11-15T05:41:06;99363.94;;;3.77;87.84
76128;BME280;64873;50.102;14.434;2022-11-15T05:43:34;99387.03;;;3.83;88.24
76128;BME280;64873;50.102;14.434;2022-11-15T05:46:01;99382.72;;;3.90;88.27
76128;BME280;64873;50.102;14.434;2022-11-15T05:48:29;99357.97;;;3.83;88.15
76128;BME280;64873;50.102;14.434;2022-11-15T05:50:55;99373.44;;;3.94;87.19
76128;BME280;64873;50.102;14.434;2022-11-15T05:53:22;99374.50;;;3.77;87.35
76128;BME280;64873;50.102;14.434;2022-11-15T05:55:48;99372.19;;;3.82;87.40
76128;BME280;64873;50.102;14.434;2022-11-15T05:58:14;99371.00;;;3.85;86.94
76128;BME280;64873;50.102;14.434;2022-11-15T06:00:39;99381.38;;;3.94;86.92
76128;BME280;64873;50.102;14.434;2022-11-15T06:03:05;99365.84;;;3.91;85.97
76128;BME280;64873;50.102;14.434;2022-11-15T06:08:14;99379.69;;;4.01;86.51
76128;BME280;64873;50.102;14.434;2022-11-15T06:10:39;99385.03;;;3.93;86.83
76128;BME280;64873;50.102;14.434;2022-11-15T06:13:05;99383.72;;;3.89;86.75
76128;BME280;64873;50.102;14.434;2022-11-15T06:15:32;99378.38;;;3.97;87.13
76128;BME280;64873;50.102;14.434;2022-11-15T06:17:58;99381.94;;;3.73;86.98
76128;BME280;64873;50.102;14.434;2022-11-15T06:20:27;99396.34;;;4.10;86.82
76128;BME280;64873;50.102;14.434;2022-11-15T06:22:57;99382.47;;;4.08;86.23
76128;BME280;64873;50.102;14.434;2022-11-15T06:25:23;99376.22;;;4.01;86.67
76128;BME280;64873;50.102;14.434;2022-11-15T06:27:53;99372.94;;;3.99;86.13
76128;BME280;64873;50.102;14.434;2022-11-15T06:30:19;99388.81;;;3.99;86.88
76128;BME280;64873;50.102;14.434;2022-11-15T06:32:45;99385.16;;;4.00;87.01
76128;BME280;64873;50.102;14.434;2022-11-15T06:35:11;99387.81;;;4.00;87.52
76128;BME280;64873;50.102;14.434;2022-11-15T06:37:36;99381.66;;;4.08;87.02
76128;BME280;64873;50.102;14.434;2022-11-15T06:40:02;99379.38;;;3.96;87.17
76128;BME280;64873;50.102;14.434;2022-11-15T06:42:27;99384.34;;;3.99;86.65
76128;BME280;64873;50.102;14.434;2022-11-15T06:44:52;99372.75;;;4.00;86.69
76128;BME280;64873;50.102;14.434;2022-11-15T06:47:18;99374.66;;;4.23;86.39
76128;BME280;64873;50.102;14.434;2022-11-15T06:49:43;99381.22;;;4.27;86.45
76128;BME280;64873;50.102;14.434;2022-11-15T06:52:08;99369.06;;;4.10;85.92
76128;BME280;64873;50.102;14.434;2022-11-15T06:54:34;99392.50;;;4.21;86.18
76128;BME280;64873;50.102;14.434;2022-11-15T06:56:59;99373.06;;;4.06;86.20
76128;BME280;64873;50.102;14.434;2022-11-15T06:59:24;99378.09;;;3.84;86.86
76128;BME280;64873;50.102;14.434;2022-11-15T07:01:50;99395.69;;;4.08;86.99
76128;BME280;64873;50.102;14.434;2022-11-15T07:04:15;99394.81;;;4.16;86.80
76128;BME280;64873;50.102;14.434;2022-11-15T07:06:40;99368.13;;;4.03;86.70
76128;BME280;64873;50.102;14.434;2022-11-15T07:09:06;99389.91;;;4.13;86.90
76128;BME280;64873;50.102;14.434;2022-11-15T07:11:32;99394.50;;;4.19;86.93
76128;BME280;64873;50.102;14.434;2022-11-15T07:13:59;99378.81;;;4.09;86.27
76128;BME280;64873;50.102;14.434;2022-11-15T07:16:25;99384.53;;;4.29;85.98
76128;BME280;64873;50.102;14.434;2022-11-15T07:18:50;99375.72;;;4.06;86.10
76128;BME280;64873;50.102;14.434;2022-11-15T07:21:15;99369.06;;;4.10;86.06
76128;BME280;64873;50.102;14.434;2022-11-15T07:23:41;99386.38;;;4.20;86.92
76128;BME280;64873;50.102;14.434;2022-11-15T07:26:07;99378.13;;;4.15;86.63
76128;BME280;64873;50.102;14.434;2022-11-15T07:28:33;99366.41;;;4.18;86.74
76128;BME280;64873;50.102;14.434;2022-11-15T07:31:05;99372.63;;;4.25;86.68
76128;BME280;64873;50.102;14.434;2022-11-15T07:33:31;99374.66;;;4.23;87.04
76128;BME280;64873;50.102;14.434;2022-11-15T07:36:00;99388.38;;;4.18;86.15
76128;BME280;64873;50.102;14.434;2022-11-15T07:38:27;99383.22;;;4.25;85.84
76128;BME280;64873;50.102;14.434;2022-11-15T07:40:57;99400.28;;;4.45;85.31
76128;BME280;64873;50.102;14.434;2022-11-15T07:43:22;99372.72;;;4.09;86.04
76128;BME280;64873;50.102;14.434;2022-11-15T07:45:48;99386.41;;;4.43;86.24
76128;BME280;64873;50.102;14.434;2022-11-15T07:48:13;99379.19;;;4.37;85.38
76128;BME280;64873;50.102;14.434;2022-11-15T07:50:42;99382.28;;;4.18;86.32
76128;BME280;64873;50.102;14.434;2022-11-15T07:53:08;99384.66;;;4.05;86.82
76128;BME280;64873;50.102;14.434;2022-11-15T07:55:34;99379.75;;;4.24;86.31
76128;BME280;64873;50.102;14.434;2022-11-15T07:58:05;99388.91;;;4.68;84.84
76128;BME280;64873;50.102;14.434;2022-11-15T08:00:31;99389.47;;;4.32;85.23
76128;BME280;64873;50.102;14.434;2022-11-15T08:03:14;99373.66;;;4.24;85.36
76128;BME280;64873;50.102;14.434;2022-11-15T08:05:40;99393.25;;;4.61;84.55
76128;BME280;64873;50.102;14.434;2022-11-15T08:08:06;99388.91;;;4.68;84.26
76128;BME280;64873;50.102;14.434;2022-11-15T08:10:32;99386.59;;;4.42;84.97
76128;BME280;64873;50.102;14.434;2022-11-15T08:13:04;99394.28;;;4.60;84.13
76128;BME280;64873;50.102;14.434;2022-11-15T08:15:30;99383.03;;;4.58;84.64
76128;BME280;64873;50.102;14.434;2022-11-15T08:18:01;99386.22;;;4.53;84.89
76128;BME280;64873;50.102;14.434;2022-11-15T08:20:28;99368.66;;;4.29;85.12
76128;BME280;64873;50.102;14.434;2022-11-15T08:22:58;99384.00;;;4.57;85.86
76128;BME280;64873;50.102;14.434;2022-11-15T08:25:24;99380.44;;;4.49;85.25
76128;BME280;64873;50.102;14.434;2022-11-15T08:27:54;99371.44;;;4.59;86.30
76128;BME280;64873;50.102;14.434;2022-11-15T08:30:20;99385.81;;;4.64;84.91
76128;BME280;64873;50.102;14.434;2022-11-15T08:32:46;99363.34;;;4.83;86.51
76128;BME280;64873;50.102;14.434;2022-11-15T08:35:12;99379.50;;;4.88;84.25
76128;BME280;64873;50.102;14.434;2022-11-15T08:37:37;99384.59;;;4.75;84.18
76128;BME280;64873;50.102;14.434;2022-11-15T08:40:03;99378.09;;;4.54;84.76
76128;BME280;64873;50.102;14.434;2022-11-15T08:42:29;99358.16;;;4.13;86.33
76128;BME280;64873;50.102;14.434;2022-11-15T08:44:54;99365.72;;;4.16;87.05
76128;BME280;64873;50.102;14.434;2022-11-15T08:47:20;99360.38;;;4.01;87.24
76128;BME280;64873;50.102;14.434;2022-11-15T08:49:45;99361.75;;;4.20;87.38
76128;BME280;64873;50.102;14.434;2022-11-15T08:52:10;99355.81;;;4.18;87.38
76128;BME280;64873;50.102;14.434;2022-11-15T08:54:36;99358.16;;;4.13;87.67
76128;BME280;64873;50.102;14.434;2022-11-15T08:57:01;99356.06;;;4.31;86.33
76128;BME280;64873;50.102;14.434;2022-11-15T08:59:26;99365.84;;;4.31;86.55
76128;BME280;64873;50.102;14.434;2022-11-15T09:01:51;99363.25;;;4.45;86.73
76128;BME280;64873;50.102;14.434;2022-11-15T09:04:17;99359.09;;;4.28;87.22
76128;BME280;64873;50.102;14.434;2022-11-15T09:06:42;99359.34;;;4.33;86.88
76128;BME280;64873;50.102;14.434;2022-11-15T09:09:08;99365.16;;;4.60;86.22
76128;BME280;64873;50.102;14.434;2022-11-15T09:11:33;99360.59;;;4.45;86.77
76128;BME280;64873;50.102;14.434;2022-11-15T09:13:58;99347.72;;;4.19;87.25
76128;BME280;64873;50.102;14.434;2022-11-15T09:16:24;99365.59;;;4.17;87.76
76128;BME280;64873;50.102;14.434;2022-11-15T09:18:49;99357.47;;;4.19;87.90
76128;BME280;64873;50.102;14.434;2022-11-15T09:21:15;99341.94;;;4.16;87.55
76128;BME280;64873;50.102;14.434;2022-11-15T09:23:40;99348.84;;;4.25;87.49
76128;BME280;64873;50.102;14.434;2022-11-15T09:26:06;99355.13;;;4.24;87.25
76128;BME280;64873;50.102;14.434;2022-11-15T09:28:32;99335.25;;;4.05;87.46
76128;BME280;64873;50.102;14.434;2022-11-15T09:30:59;99345.25;;;4.18;87.70
76128;BME280;64873;50.102;14.434;2022-11-15T09:33:25;99344.19;;;4.27;87.43
76128;BME280;64873;50.102;14.434;2022-11-15T09:35:51;99347.53;;;4.21;87.35
76128;BME280;64873;50.102;14.434;2022-11-15T09:38:17;99341.09;;;4.15;87.39
76128;BME280;64873;50.102;14.434;2022-11-15T09:40:42;99336.00;;;4.14;87.03
76128;BME280;64873;50.102;14.434;2022-11-15T09:43:29;99347.50;;;4.29;87.42
76128;BME280;64873;50.102;14.434;2022-11-15T09:46:23;99351.00;;;4.21;87.06
76128;BME280;64873;50.102;14.434;2022-11-15T09:48:57;99356.78;;;4.25;86.67
76128;BME280;64873;50.102;14.434;2022-11-15T09:51:30;99338.94;;;4.19;86.23
76128;BME280;64873;50.102;14.434;2022-11-15T09:54:02;99357.47;;;4.19;86.84
76128;BME280;64873;50.102;14.434;2022-11-15T09:56:30;99350.72;;;4.16;86.54
76128;BME280;64873;50.102;14.434;2022-11-15T10:04:22;99341.22;;;4.30;86.18
76128;BME280;64873;50.102;14.434;2022-11-15T10:07:13;99331.66;;;4.52;85.20
76128;BME280;64873;50.102;14.434;2022-11-15T10:09:49;99322.56;;;4.23;85.46
76128;BME280;64873;50.102;14.434;2022-11-15T10:12:18;99339.19;;;4.63;84.47
76128;BME280;64873;50.102;14.434;2022-11-15T10:14:45;99323.03;;;4.27;84.88
76128;BME280;64873;50.102;14.434;2022-11-15T10:17:30;99334.97;;;4.23;85.91
76128;BME280;64873;50.102;14.434;2022-11-15T10:20:17;99332.63;;;4.51;85.02
76128;BME280;64873;50.102;14.434;2022-11-15T10:22:49;99316.31;;;4.39;84.96
76128;BME280;64873;50.102;14.434;2022-11-15T10:25:23;99302.28;;;4.62;84.05
76128;BME280;64873;50.102;14.434;2022-11-15T10:28:01;99319.84;;;4.32;85.58
76128;BME280;64873;50.102;14.434;2022-11-15T10:30:52;99310.31;;;3.99;86.95
76128;BME280;64873;50.102;14.434;2022-11-15T10:34:10;99321.22;;;3.96;87.12
76128;BME280;64873;50.102;14.434;2022-11-15T10:36:37;99312.19;;;4.14;87.19
76128;BME280;64873;50.102;14.434;2022-11-15T10:39:03;99297.91;;;4.00;87.11
76128;BME280;64873;50.102;14.434;2022-11-15T10:41:31;99304.28;;;4.14;86.82
76128;BME280;64873;50.102;14.434;2022-11-15T10:49:26;99299.97;;;4.13;86.14
76128;BME280;64873;50.102;14.434;2022-11-15T10:54:41;99284.44;;;4.10;86.09
76128;BME280;64873;50.102;14.434;2022-11-15T10:57:20;99276.25;;;4.05;86.14
76128;BME280;64873;50.102;14.434;2022-11-15T10:59:48;99268.47;;;4.03;85.68
76128;BME280;64873;50.102;14.434;2022-11-15T11:02:45;99260.13;;;4.14;85.61
76128;BME280;64873;50.102;14.434;2022-11-15T11:05:37;99277.00;;;4.13;85.78
76128;BME280;64873;50.102;14.434;2022-11-15T11:10:52;99267.75;;;4.09;85.90
76128;BME280;64873;50.102;14.434;2022-11-15T11:13:26;99245.56;;;3.95;86.10
76128;BME280;64873;50.102;14.434;2022-11-15T11:21:26;99273.25;;;4.08;85.84
76128;BME280;64873;50.102;14.434;2022-11-15T11:26:57;99262.53;;;4.01;86.77
76128;BME280;64873;50.102;14.434;2022-11-15T11:29:44;99266.50;;;4.28;86.09
76128;BME280;64873;50.102;14.434;2022-11-15T11:32:28;99252.88;;;4.16;86.10
76128;BME280;64873;50.102;14.434;2022-11-15T11:35:17;99238.22;;;4.06;85.73
76128;BME280;64873;50.102;14.434;2022-11-15T11:48:56;99226.03;;;4.42;85.49
76128;BME280;64873;50.102;14.434;2022-11-15T11:51:43;99229.34;;;4.21;85.47
76128;BME280;64873;50.102;14.434;2022-11-15T11:54:16;99211.72;;;4.14;85.41
76128;BME280;64873;50.102;14.434;2022-11-15T11:56:44;99209.78;;;4.08;85.52
76128;BME280;64873;50.102;14.434;2022-11-15T12:01:51;99214.88;;;4.09;85.48
76128;BME280;64873;50.102;14.434;2022-11-15T12:04:34;99192.88;;;3.94;85.31
76128;BME280;64873;50.102;14.434;2022-11-15T12:07:08;99187.69;;;4.00;85.38
76128;BME280;64873;50.102;14.434;2022-11-15T12:09:43;99206.78;;;4.11;84.83
76128;BME280;64873;50.102;14.434;2022-11-15T12:12:25;99201.78;;;4.16;84.62
76128;BME280;64873;50.102;14.434;2022-11-15T12:14:59;99187.03;;;3.98;84.36
76128;BME280;64873;50.102;14.434;2022-11-15T12:17:29;99179.47;;;3.95;84.49
76128;BME280;64873;50.102;14.434;2022-11-15T12:20:04;99189.22;;;3.95;85.12
76128;BME280;64873;50.102;14.434;2022-11-15T12:25:31;99185.50;;;4.04;84.94
76128;BME280;64873;50.102;14.434;2022-11-15T12:31:03;99171.06;;;3.92;85.01
76128;BME280;64873;50.102;14.434;2022-11-15T12:36:08;99154.97;;;4.01;85.16
76128;BME280;64873;50.102;14.434;2022-11-15T12:41:31;99147.78;;;4.10;85.06
76128;BME280;64873;50.102;14.434;2022-11-15T12:43:57;99138.53;;;4.29;84.86
76128;BME280;64873;50.102;14.434;2022-11-15T12:48:59;99141.31;;;4.13;85.49
76128;BME280;64873;50.102;14.434;2022-11-15T13:02:25;99118.19;;;4.44;84.33
76128;BME280;64873;50.102;14.434;2022-11-15T13:04:54;99104.97;;;4.44;84.14
76128;BME280;64873;50.102;14.434;2022-11-15T13:12:59;99128.44;;;4.62;83.78
76128;BME280;64873;50.102;14.434;2022-11-15T13:17:56;99113.78;;;4.22;84.67
76128;BME280;64873;50.102;14.434;2022-11-15T13:20:25;99113.91;;;4.43;84.65
76128;BME280;64873;50.102;14.434;2022-11-15T13:22:52;99123.19;;;4.24;84.87
76128;BME280;64873;50.102;14.434;2022-11-15T13:30:54;99110.13;;;4.08;85.78
76128;BME280;64873;50.102;14.434;2022-11-15T13:33:37;99109.81;;;4.03;85.97
76128;BME280;64873;50.102;14.434;2022-11-15T13:36:12;99104.38;;;4.05;85.95
76128;BME280;64873;50.102;14.434;2022-11-15T13:38:39;99108.66;;;4.06;86.30
76128;BME280;64873;50.102;14.434;2022-11-15T13:43:42;99092.56;;;3.92;86.67
76128;BME280;64873;50.102;14.434;2022-11-15T13:46:25;99108.66;;;4.06;87.01
76128;BME280;64873;50.102;14.434;2022-11-15T13:48:57;99094.44;;;4.07;87.20
76128;BME280;64873;50.102;14.434;2022-11-15T13:51:39;99106.19;;;4.04;86.83
76128;BME280;64873;50.102;14.434;2022-11-15T13:56:45;99089.94;;;3.92;87.09
76128;BME280;64873;50.102;14.434;2022-11-15T13:59:25;99093.75;;;3.90;87.39
76128;BME280;64873;50.102;14.434;2022-11-15T14:01:51;99091.16;;;4.05;86.95
76128;BME280;64873;50.102;14.434;2022-11-15T14:04:20;99065.22;;;3.85;86.27
76128;BME280;64873;50.102;14.434;2022-11-15T14:06:51;99082.38;;;3.89;86.12
76128;BME280;64873;50.102;14.434;2022-11-15T14:09:44;99073.72;;;3.95;86.20
76128;BME280;64873;50.102;14.434;2022-11-15T14:12:32;99065.59;;;3.82;86.90
76128;BME280;64873;50.102;14.434;2022-11-15T14:14:59;99066.31;;;3.91;87.10
76128;BME280;64873;50.102;14.434;2022-11-15T14:19:53;99054.41;;;3.95;86.75
76128;BME280;64873;50.102;14.434;2022-11-15T14:22:24;99057.00;;;3.80;87.11
76128;BME280;64873;50.102;14.434;2022-11-15T14:27:38;99067.81;;;3.93;87.06
76128;BME280;64873;50.102;14.434;2022-11-15T14:30:04;99062.38;;;3.87;87.22
76128;BME280;64873;50.102;14.434;2022-11-15T14:32:55;99067.44;;;3.96;86.87
76128;BME280;64873;50.102;14.434;2022-11-15T14:35:22;99061.16;;;4.27;85.56
76128;BME280;64873;50.102;14.434;2022-11-15T14:37:48;99062.19;;;4.26;85.85
76128;BME280;64873;50.102;14.434;2022-11-15T14:40:19;99046.78;;;3.77;87.11
76128;BME280;64873;50.102;14.434;2022-11-15T14:42:47;99051.00;;;3.86;87.26
76128;BME280;64873;50.102;14.434;2022-11-15T14:45:21;99039.53;;;3.94;87.03
76128;BME280;64873;50.102;14.434;2022-11-15T14:47:47;99046.09;;;3.83;87.54
76128;BME280;64873;50.102;14.434;2022-11-15T14:50:18;99017.72;;;3.77;87.33
76128;BME280;64873;50.102;14.434;2022-11-15T14:52:44;99034.34;;;4.00;87.32
76128;BME280;64873;50.102;14.434;2022-11-15T14:57:42;99029.97;;;3.93;87.55
76128;BME280;64873;50.102;14.434;2022-11-15T15:00:08;99014.50;;;4.05;87.20
76128;BME280;64873;50.102;14.434;2022-11-15T15:02:35;99020.78;;;4.33;86.89
76128;BME280;64873;50.102;14.434;2022-11-15T15:05:00;99029.50;;;3.89;86.90
76128;BME280;64873;50.102;14.434;2022-11-15T15:07:28;99018.69;;;4.14;87.35
76128;BME280;64873;50.102;14.434;2022-11-15T15:09:53;99023.63;;;4.17;86.53
76128;BME280;64873;50.102;14.434;2022-11-15T15:12:21;99017.84;;;3.98;86.62
76128;BME280;64873;50.102;14.434;2022-11-15T15:14:47;99006.41;;;3.68;87.53
76128;BME280;64873;50.102;14.434;2022-11-15T15:17:14;99013.44;;;3.76;88.39
76128;BME280;64873;50.102;14.434;2022-11-15T15:19:39;99003.31;;;3.80;88.48